Time;durP1;ratioP1;P1;durP2;ratioP2;P2;SDS_P1;SDS_P2;PMS_P1;PMS_P2;Temp;Humidity;BMP_temperature;BMP_pressure;BME280_temperature;BME280_humidity;BME280_pressure;Samples;Min_cycle;Max_cycle;Signal;HPM_P1;HPM_P2
2021/12/19 00:04:03;;;;;;;6.75;2.90;;;8.20;99.90;;;;;;5074702;28;20040;-43
2021/12/19 00:09:12;;;;;;;5.97;2.80;;;8.20;99.90;;;;;;5093426;28;20039;-44
2021/12/19 00:11:38;;;;;;;5.65;3.00;;;8.20;99.90;;;;;;5092587;28;20020;-44
2021/12/19 00:14:05;;;;;;;5.70;2.78;;;8.20;99.90;;;;;;5085170;28;20035;-44
2021/12/19 00:16:31;;;;;;;5.03;2.28;;;8.20;99.90;;;;;;5072764;28;20025;-44
2021/12/19 00:18:57;;;;;;;5.97;2.42;;;8.20;99.90;;;;;;5072409;28;20017;-44
2021/12/19 00:21:25;;;;;;;7.55;2.63;;;8.20;99.90;;;;;;5072920;28;20111;-43
2021/12/19 00:23:52;;;;;;;8.00;2.53;;;8.20;99.90;;;;;;5077196;28;20382;-43
2021/12/19 00:26:19;;;;;;;5.75;2.53;;;8.20;99.90;;;;;;5092334;28;20020;-43
2021/12/19 00:28:46;;;;;;;4.93;2.05;;;8.20;99.90;;;;;;5092875;28;20425;-43
2021/12/19 00:31:12;;;;;;;4.75;2.22;;;8.30;99.90;;;;;;5092814;28;20043;-44
2021/12/19 00:33:39;;;;;;;3.75;2.00;;;8.30;99.90;;;;;;5089500;28;20497;-43
2021/12/19 00:36:07;;;;;;;2.85;1.73;;;8.30;99.90;;;;;;5072642;28;20056;-43
2021/12/19 00:38:33;;;;;;;6.57;2.60;;;8.30;99.90;;;;;;5072726;28;20020;-43
2021/12/19 00:40:59;;;;;;;6.25;2.60;;;8.30;99.90;;;;;;5072085;28;20048;-43
2021/12/19 00:46:11;;;;;;;11.73;2.55;;;8.30;99.90;;;;;;5092793;28;20040;-45
2021/12/19 00:48:40;;;;;;;5.93;2.28;;;8.30;99.90;;;;;;5092247;28;20413;-45
2021/12/19 00:51:07;;;;;;;6.15;2.85;;;8.30;99.90;;;;;;5092668;28;20027;-42
2021/12/19 00:53:33;;;;;;;5.28;2.40;;;8.30;99.90;;;;;;5087848;28;20067;-44
2021/12/19 00:55:59;;;;;;;6.22;2.75;;;8.30;99.90;;;;;;5072221;28;20380;-43
2021/12/19 00:58:24;;;;;;;6.10;2.83;;;8.30;99.90;;;;;;5072505;28;20024;-44
2021/12/19 01:00:50;;;;;;;8.73;3.22;;;8.30;99.90;;;;;;5071705;28;20049;-43
2021/12/19 01:03:16;;;;;;;6.63;2.67;;;8.30;99.90;;;;;;5073581;28;20017;-43
2021/12/19 01:05:43;;;;;;;6.07;2.53;;;8.30;99.90;;;;;;5092648;28;20056;-43
2021/12/19 01:08:11;;;;;;;7.65;2.53;;;8.30;99.90;;;;;;5092063;28;20023;-43
2021/12/19 01:10:37;;;;;;;8.75;2.80;;;8.30;99.90;;;;;;5092623;28;20024;-43
2021/12/19 01:13:03;;;;;;;6.60;3.17;;;8.40;99.90;;;;;;5090068;28;20667;-44
2021/12/19 01:15:30;;;;;;;9.80;3.05;;;8.40;99.90;;;;;;5074923;28;20028;-43
2021/12/19 01:17:56;;;;;;;8.00;2.83;;;8.30;99.90;;;;;;5075944;28;20029;-43
2021/12/19 01:20:24;;;;;;;7.55;3.00;;;8.40;99.90;;;;;;5076005;28;20021;-43
2021/12/19 01:22:52;;;;;;;7.43;3.17;;;8.40;99.90;;;;;;5075288;28;20032;-43
2021/12/19 01:25:18;;;;;;;10.07;3.40;;;8.40;99.90;;;;;;5075792;28;20021;-44
2021/12/19 01:27:44;;;;;;;11.48;3.78;;;8.30;99.90;;;;;;5075732;28;20020;-43
2021/12/19 01:30:11;;;;;;;8.73;2.92;;;8.40;99.90;;;;;;5075173;28;20475;-43
2021/12/19 01:32:38;;;;;;;12.45;4.18;;;8.40;99.90;;;;;;5075670;28;20025;-44
2021/12/19 01:35:05;;;;;;;8.10;3.03;;;8.40;99.90;;;;;;5075768;28;20111;-43
2021/12/19 01:37:31;;;;;;;7.18;2.95;;;8.40;99.90;;;;;;5075049;28;20473;-43
2021/12/19 01:39:56;;;;;;;6.80;2.33;;;8.30;99.90;;;;;;5075532;28;20103;-43
2021/12/19 01:42:30;;;;;;;2.17;1.15;;;8.40;99.90;;;;;;5075439;28;20021;-44
2021/12/19 01:44:56;;;;;;;1.88;1.00;;;8.40;99.90;;;;;;5091390;28;20032;-44
2021/12/19 01:47:21;;;;;;;3.83;1.33;;;8.40;99.90;;;;;;5095737;28;20025;-43
2021/12/19 01:49:47;;;;;;;3.25;1.80;;;8.40;99.90;;;;;;5095188;28;20020;-42
2021/12/19 01:52:12;;;;;;;2.80;1.20;;;8.40;99.90;;;;;;5095535;28;20027;-45
2021/12/19 01:54:38;;;;;;;3.13;1.30;;;8.30;99.90;;;;;;5081731;28;20032;-43
2021/12/19 01:57:04;;;;;;;3.30;1.20;;;8.30;99.90;;;;;;5074646;28;20029;-43
2021/12/19 01:59:29;;;;;;;2.33;1.13;;;8.30;99.90;;;;;;5074874;28;20489;-43
2021/12/19 02:01:56;;;;;;;5.25;1.23;;;8.30;99.90;;;;;;5075219;28;20020;-43
2021/12/19 02:04:23;;;;;;;1.33;0.90;;;8.30;99.90;;;;;;5085104;28;20032;-43
2021/12/19 02:06:49;;;;;;;1.55;0.80;;;8.30;99.90;;;;;;5095385;28;20020;-43
2021/12/19 02:09:15;;;;;;;2.38;1.10;;;8.30;99.90;;;;;;5095384;28;20031;-44
2021/12/19 02:11:42;;;;;;;3.22;0.73;;;8.20;99.90;;;;;;5092206;28;20016;-43
2021/12/19 02:14:09;;;;;;;1.30;0.47;;;8.30;99.90;;;;;;5075079;28;20031;-44
2021/12/19 02:16:37;;;;;;;2.55;0.50;;;8.20;99.90;;;;;;5074894;28;20467;-44
2021/12/19 02:19:04;;;;;;;2.45;0.50;;;8.20;99.90;;;;;;5074361;28;20031;-42
2021/12/19 02:21:29;;;;;;;0.43;0.43;;;8.20;99.90;;;;;;5074862;28;20107;-44
2021/12/19 02:24:01;;;;;;;0.98;0.40;;;8.20;99.90;;;;;;5094662;28;20108;-43
2021/12/19 02:26:27;;;;;;;0.82;0.40;;;8.20;99.90;;;;;;5093816;28;20067;-43
2021/12/19 02:28:52;;;;;;;0.65;0.40;;;8.20;99.90;;;;;;5091217;28;20491;-43
2021/12/19 02:31:20;;;;;;;0.50;0.30;;;8.20;99.90;;;;;;5094822;28;20035;-44
2021/12/19 02:33:59;;;;;;;1.08;0.43;;;8.20;99.90;;;;;;5094422;28;20447;-43
2021/12/19 02:36:40;;;;;;;;;;;8.20;99.90;;;;;;5095302;28;20386;-43
2021/12/19 02:50:07;;;;;;;1.45;0.63;;;8.10;99.90;;;;;;5094795;28;20063;-43
2021/12/19 02:52:32;;;;;;;0.55;0.50;;;8.10;99.90;;;;;;5094372;28;20028;-43
2021/12/19 02:54:58;;;;;;;0.50;0.40;;;8.10;99.90;;;;;;5093666;28;20027;-44
2021/12/19 02:57:23;;;;;;;1.00;0.55;;;8.10;99.90;;;;;;5090698;28;20096;-46
2021/12/19 02:59:49;;;;;;;0.50;0.40;;;8.10;99.90;;;;;;5073860;28;20062;-43
2021/12/19 03:02:16;;;;;;;1.33;0.80;;;8.10;99.90;;;;;;5073621;28;20025;-43
2021/12/19 03:05:11;;;;;;;0.80;0.70;;;8.10;99.90;;;;;;5074041;28;20029;-44
2021/12/19 03:07:41;;;;;;;1.27;0.50;;;8.10;99.90;;;;;;5059687;28;20035;-43
2021/12/19 03:18:08;;;;;;;0.90;0.63;;;8.10;99.90;;;;;;5085183;28;20051;-44
2021/12/19 03:20:34;;;;;;;1.75;0.68;;;8.10;99.90;;;;;;5073735;28;20403;-42
2021/12/19 03:23:01;;;;;;;2.53;0.57;;;8.10;99.90;;;;;;5072875;28;20131;-44
2021/12/19 03:25:29;;;;;;;4.70;0.80;;;8.10;99.90;;;;;;5073512;28;20024;-43
2021/12/19 03:27:55;;;;;;;2.75;0.60;;;8.10;99.90;;;;;;5078035;28;20024;-43
2021/12/19 03:30:21;;;;;;;1.02;0.65;;;8.10;99.90;;;;;;5085631;28;20020;-44
2021/12/19 03:32:46;;;;;;;1.15;0.70;;;8.10;99.90;;;;;;5073594;28;20371;-44
2021/12/19 03:35:12;;;;;;;3.20;0.85;;;8.10;99.90;;;;;;5072903;28;20024;-43
2021/12/19 03:37:38;;;;;;;0.65;0.55;;;8.10;99.90;;;;;;5074916;28;20029;-43
2021/12/19 03:40:11;;;;;;;1.65;0.90;;;8.10;99.90;;;;;;5093555;28;20034;-45
2021/12/19 03:42:48;;;;;;;1.35;0.77;;;8.10;99.90;;;;;;5092955;28;20455;-43
2021/12/19 03:45:18;;;;;;;3.10;0.80;;;8.20;99.90;;;;;;5093591;28;20016;-44
2021/12/19 03:47:44;;;;;;;0.77;0.60;;;8.10;99.90;;;;;;5087315;28;20051;-45
2021/12/19 03:50:13;;;;;;;2.58;0.60;;;8.10;99.90;;;;;;5072669;28;20102;-43
2021/12/19 03:52:39;;;;;;;2.05;0.75;;;8.10;99.90;;;;;;5073267;28;20021;-43
2021/12/19 03:55:06;;;;;;;0.80;0.68;;;8.10;99.90;;;;;;5072991;28;20086;-44
2021/12/19 03:57:31;;;;;;;0.82;0.43;;;8.10;99.90;;;;;;5073675;28;20445;-44
2021/12/19 03:59:57;;;;;;;1.33;0.50;;;8.10;99.90;;;;;;5092995;28;20048;-43
2021/12/19 04:02:26;;;;;;;5.38;0.68;;;8.10;99.90;;;;;;5093301;28;20028;-44
2021/12/19 04:04:53;;;;;;;0.25;0.22;;;8.00;99.90;;;;;;5092794;28;20027;-43
2021/12/19 04:07:19;;;;;;;0.17;0.17;;;8.00;99.90;;;;;;5088617;28;20424;-44
2021/12/19 04:09:44;;;;;;;1.55;0.38;;;8.00;99.90;;;;;;5072894;28;20119;-44
2021/12/19 04:12:10;;;;;;;2.30;0.35;;;8.00;99.90;;;;;;5072307;28;20103;-45
2021/12/19 04:14:36;;;;;;;0.20;0.20;;;8.00;99.90;;;;;;5073101;28;20020;-43
2021/12/19 04:17:02;;;;;;;0.25;0.10;;;8.00;99.90;;;;;;5074307;28;20707;-43
2021/12/19 04:19:29;;;;;;;0.50;0.30;;;7.90;99.90;;;;;;5092628;28;20074;-43
2021/12/19 04:21:55;;;;;;;0.55;0.40;;;7.90;99.90;;;;;;5093032;28;20020;-43
2021/12/19 04:24:20;;;;;;;0.32;0.20;;;7.80;99.90;;;;;;5093060;28;20024;-44
2021/12/19 04:26:46;;;;;;;0.35;0.20;;;7.90;99.90;;;;;;5090457;28;20095;-44
2021/12/19 04:29:11;;;;;;;2.00;0.35;;;7.80;99.90;;;;;;5072761;28;20086;-43
2021/12/19 04:31:37;;;;;;;0.80;0.50;;;7.80;99.90;;;;;;5072253;28;20024;-43
2021/12/19 04:34:03;;;;;;;0.47;0.30;;;7.80;99.90;;;;;;5072778;28;20021;-43
2021/12/19 04:36:33;;;;;;;0.88;0.25;;;7.80;99.90;;;;;;5072668;28;20032;-44
2021/12/19 04:41:50;;;;;;;0.43;0.20;;;7.80;99.90;;;;;;5092900;28;20073;-44
2021/12/19 04:44:36;;;;;;;1.80;0.30;;;7.80;99.90;;;;;;5092840;28;20055;-43
2021/12/19 04:51:00;;;;;;;0.40;0.30;;;7.80;99.90;;;;;;5089046;28;20153;-43
2021/12/19 04:57:47;;;;;;;2.47;0.63;;;7.80;99.90;;;;;;5085286;28;20060;-43
2021/12/19 05:00:34;;;;;;;0.63;0.32;;;7.80;99.90;;;;;;5075497;28;20087;-43
2021/12/19 05:03:07;;;;;;;2.13;0.65;;;7.70;99.90;;;;;;5076409;28;20029;-43
2021/12/19 05:16:25;;;;;;;4.15;1.35;;;7.70;99.90;;;;;;5093004;28;20490;-45
2021/12/19 05:18:53;;;;;;;2.50;1.10;;;7.70;99.90;;;;;;5075822;28;20048;-43
2021/12/19 05:21:24;;;;;;;2.00;0.80;;;7.70;99.90;;;;;;5075655;28;20357;-44
2021/12/19 05:26:25;;;;;;;3.55;1.40;;;7.80;99.90;;;;;;5077985;28;20071;-43
2021/12/19 05:28:52;;;;;;;5.07;1.35;;;7.80;99.90;;;;;;5095235;28;20071;-42
2021/12/19 05:31:21;;;;;;;2.67;1.15;;;7.80;99.90;;;;;;5096104;28;20020;-43
2021/12/19 05:33:47;;;;;;;4.13;1.00;;;7.80;99.90;;;;;;5077892;28;20439;-43
2021/12/19 05:46:56;;;;;;;4.50;2.13;;;7.80;99.90;;;;;;5054738;28;20036;-43
2021/12/19 05:49:21;;;;;;;5.72;2.55;;;7.80;99.90;;;;;;5074921;28;20024;-44
2021/12/19 05:51:47;;;;;;;9.88;2.38;;;7.80;99.90;;;;;;5075411;28;20402;-43
2021/12/19 05:54:13;;;;;;;6.00;1.85;;;7.80;99.90;;;;;;5075448;28;20035;-43
2021/12/19 05:56:39;;;;;;;5.63;2.35;;;7.80;99.90;;;;;;5078568;28;20028;-43
2021/12/19 05:59:06;;;;;;;5.05;2.47;;;7.90;99.90;;;;;;5094877;28;20501;-43
2021/12/19 06:01:32;;;;;;;7.60;2.38;;;7.80;99.90;;;;;;5093434;28;20082;-43
2021/12/19 06:03:58;;;;;;;9.43;2.75;;;7.90;99.90;;;;;;5094335;28;20116;-44
2021/12/19 06:06:26;;;;;;;6.30;2.58;;;7.90;99.90;;;;;;5090099;28;20523;-44
2021/12/19 06:08:52;;;;;;;11.63;4.05;;;7.90;99.90;;;;;;5074474;28;20414;-44
2021/12/19 06:11:18;;;;;;;4.78;2.67;;;7.90;99.90;;;;;;5073767;28;20016;-43
2021/12/19 06:13:44;;;;;;;10.20;3.08;;;7.90;99.90;;;;;;5074414;28;20391;-43
2021/12/19 06:16:09;;;;;;;7.78;3.78;;;7.90;99.90;;;;;;5075930;28;20020;-44
2021/12/19 06:18:35;;;;;;;10.38;3.42;;;7.90;99.90;;;;;;5093870;28;20039;-43
2021/12/19 06:21:01;;;;;;;12.13;3.80;;;7.90;99.90;;;;;;5094292;28;20095;-43
2021/12/19 06:23:26;;;;;;;14.25;4.22;;;7.90;99.90;;;;;;5094340;28;20111;-44
2021/12/19 06:25:53;;;;;;;15.10;4.18;;;8.00;99.90;;;;;;5093758;28;20490;-43
2021/12/19 06:28:20;;;;;;;10.95;3.45;;;7.90;99.90;;;;;;5093906;28;20448;-43
2021/12/19 06:30:46;;;;;;;10.63;3.45;;;8.00;99.90;;;;;;5093116;28;20028;-44
2021/12/19 06:33:12;;;;;;;13.82;3.95;;;7.90;99.90;;;;;;5093699;28;20024;-44
2021/12/19 06:35:37;;;;;;;10.20;3.72;;;7.90;99.90;;;;;;5093112;28;20055;-45
2021/12/19 06:38:03;;;;;;;14.10;3.92;;;8.00;99.90;;;;;;5093726;28;20089;-45
2021/12/19 06:40:29;;;;;;;11.48;3.72;;;7.90;99.90;;;;;;5093998;28;20024;-44
2021/12/19 06:42:55;;;;;;;9.73;3.63;;;8.00;99.90;;;;;;5093890;28;20046;-44
2021/12/19 06:45:21;;;;;;;13.68;4.32;;;8.00;99.90;;;;;;5084543;28;20103;-43
2021/12/19 06:47:47;;;;;;;7.40;2.80;;;8.00;99.90;;;;;;5073650;28;20021;-44
2021/12/19 06:50:15;;;;;;;8.45;3.08;;;8.00;99.90;;;;;;5073498;28;20024;-43
2021/12/19 06:52:41;;;;;;;12.52;4.00;;;8.00;99.90;;;;;;5072959;28;20029;-44
2021/12/19 06:55:08;;;;;;;11.32;3.88;;;8.00;99.90;;;;;;5074271;28;20016;-43
2021/12/19 06:57:34;;;;;;;12.15;3.90;;;8.00;99.90;;;;;;5072900;28;20087;-44
2021/12/19 07:00:00;;;;;;;10.48;3.25;;;8.00;99.90;;;;;;5078396;28;20048;-44
2021/12/19 07:02:25;;;;;;;18.70;3.42;;;8.00;99.90;;;;;;5093140;28;20383;-44
2021/12/19 07:04:51;;;;;;;9.57;3.63;;;8.00;99.90;;;;;;5088479;28;20349;-43
2021/12/19 07:07:19;;;;;;;12.82;3.05;;;8.00;99.90;;;;;;5071943;28;20131;-45
2021/12/19 07:09:44;;;;;;;13.52;4.35;;;8.00;99.90;;;;;;5072393;28;20032;-44
2021/12/19 07:12:10;;;;;;;11.98;4.25;;;8.00;99.90;;;;;;5080708;28;20028;-43
2021/12/19 07:14:36;;;;;;;12.38;2.95;;;8.00;99.90;;;;;;5075455;28;20067;-43
2021/12/19 07:17:01;;;;;;;6.07;3.33;;;8.00;99.90;;;;;;5075060;28;20386;-43
2021/12/19 07:19:27;;;;;;;12.10;4.57;;;8.00;99.90;;;;;;5092682;28;20027;-44
2021/12/19 07:21:53;;;;;;;8.82;3.03;;;8.00;99.90;;;;;;5091883;28;20017;-44
2021/12/19 07:24:18;;;;;;;14.55;3.25;;;8.00;99.90;;;;;;5092538;28;20086;-42
2021/12/19 07:26:44;;;;;;;12.23;2.72;;;8.00;99.90;;;;;;5092096;28;20023;-44
2021/12/19 07:29:10;;;;;;;5.78;3.45;;;8.00;99.90;;;;;;5089271;28;20016;-44
2021/12/19 07:31:37;;;;;;;9.60;3.80;;;8.00;99.90;;;;;;5072098;28;20020;-46
2021/12/19 07:34:04;;;;;;;6.75;2.50;;;8.00;99.90;;;;;;5072156;28;20424;-44
2021/12/19 07:36:37;;;;;;;6.45;2.72;;;8.00;99.90;;;;;;5071525;28;20028;-44
2021/12/19 07:39:09;;;;;;;9.30;2.92;;;8.00;99.90;;;;;;5089367;28;20055;-44
2021/12/19 07:41:35;;;;;;;6.72;2.83;;;8.00;99.90;;;;;;5090774;28;20031;-44
2021/12/19 07:44:00;;;;;;;5.75;2.85;;;8.00;99.90;;;;;;5091286;28;20459;-44
2021/12/19 07:46:26;;;;;;;5.82;2.67;;;8.00;99.90;;;;;;5091131;28;20024;-44
2021/12/19 07:48:51;;;;;;;7.28;2.00;;;8.00;99.90;;;;;;5090857;28;20089;-43
2021/12/19 07:51:17;;;;;;;8.00;2.90;;;8.00;99.90;;;;;;5090194;28;20032;-43
2021/12/19 07:53:43;;;;;;;3.97;1.58;;;8.00;99.90;;;;;;5092301;28;20024;-44
2021/12/19 07:56:08;;;;;;;5.57;1.80;;;8.00;99.90;;;;;;5092181;28;20024;-43
2021/12/19 07:58:34;;;;;;;7.22;1.90;;;8.00;99.90;;;;;;5092640;28;20028;-44
2021/12/19 08:00:59;;;;;;;10.50;2.28;;;8.00;99.90;;;;;;5091241;28;20097;-45
2021/12/19 08:03:25;;;;;;;10.05;1.98;;;8.00;99.90;;;;;;5092170;28;20084;-43
2021/12/19 08:05:51;;;;;;;10.38;2.55;;;8.00;99.90;;;;;;5092372;28;20024;-44
2021/12/19 08:08:21;;;;;;;5.60;1.83;;;8.10;99.90;;;;;;5090793;28;20017;-42
2021/12/19 08:13:12;;;;;;;3.65;1.33;;;8.10;99.90;;;;;;5092584;28;20077;-45
2021/12/19 08:15:39;;;;;;;5.63;1.70;;;8.10;99.90;;;;;;5077472;28;20137;-42
2021/12/19 08:18:06;;;;;;;13.30;2.22;;;8.10;99.90;;;;;;5071536;28;20060;-44
2021/12/19 08:20:31;;;;;;;13.05;2.03;;;8.10;99.90;;;;;;5072510;28;20025;-43
2021/12/19 08:22:57;;;;;;;4.32;2.80;;;8.10;99.90;;;;;;5072250;28;20025;-44
2021/12/19 08:25:24;;;;;;;5.38;1.63;;;8.10;99.90;;;;;;5081049;28;20012;-44
2021/12/19 08:27:50;;;;;;;5.30;1.60;;;8.10;99.90;;;;;;5096027;28;20023;-44
2021/12/19 08:30:16;;;;;;;6.40;1.60;;;8.10;99.90;;;;;;5099149;28;20103;-43
2021/12/19 08:32:42;;;;;;;8.15;1.80;;;8.10;99.90;;;;;;5098483;28;20024;-43
2021/12/19 08:35:10;;;;;;;15.80;1.77;;;8.10;99.90;;;;;;5090339;28;20063;-43
2021/12/19 08:37:36;;;;;;;12.13;2.22;;;8.10;99.90;;;;;;5078691;28;20043;-48
2021/12/19 08:40:02;;;;;;;9.05;1.75;;;8.20;99.90;;;;;;5079521;28;20020;-42
2021/12/19 08:42:28;;;;;;;11.07;1.75;;;8.20;99.90;;;;;;5089905;28;20023;-43
2021/12/19 08:44:54;;;;;;;3.97;1.20;;;8.20;99.90;;;;;;5077820;28;20036;-44
2021/12/19 08:47:20;;;;;;;7.32;2.30;;;8.20;99.90;;;;;;5091495;28;20052;-43
2021/12/19 08:49:46;;;;;;;6.93;1.90;;;8.20;99.90;;;;;;5098600;28;20043;-44
2021/12/19 08:52:12;;;;;;;6.32;2.05;;;8.20;99.90;;;;;;5098299;28;20042;-43
2021/12/19 08:54:38;;;;;;;9.30;2.05;;;8.20;99.90;;;;;;5098483;28;20494;-43
2021/12/19 08:57:04;;;;;;;7.05;1.92;;;8.20;99.90;;;;;;5098805;28;20028;-43
2021/12/19 08:59:30;;;;;;;8.30;2.03;;;8.20;99.90;;;;;;5084811;28;20029;-44
2021/12/19 09:02:00;;;;;;;6.95;1.98;;;8.20;99.90;;;;;;5086058;28;20399;-43
2021/12/19 09:04:25;;;;;;;3.45;1.25;;;8.20;99.90;;;;;;5096098;28;20031;-44
2021/12/19 09:06:51;;;;;;;9.77;2.00;;;8.20;99.90;;;;;;5094458;28;20032;-42
2021/12/19 09:09:17;;;;;;;10.30;2.03;;;8.10;99.90;;;;;;5096330;28;20375;-44
2021/12/19 09:11:43;;;;;;;3.22;1.75;;;8.10;99.90;;;;;;5097202;28;20044;-43
2021/12/19 09:14:08;;;;;;;5.30;2.08;;;8.20;99.90;;;;;;5096826;28;20105;-44
2021/12/19 09:16:34;;;;;;;5.07;2.03;;;8.10;99.90;;;;;;5097270;28;20602;-43
2021/12/19 09:18:59;;;;;;;12.88;2.15;;;8.10;99.90;;;;;;5097038;28;20040;-43
2021/12/19 09:21:25;;;;;;;7.70;1.70;;;8.20;99.90;;;;;;5097241;28;20416;-43
2021/12/19 09:23:51;;;;;;;3.38;1.77;;;8.10;99.90;;;;;;5097135;28;20474;-45
2021/12/19 09:26:16;;;;;;;6.22;1.95;;;8.20;99.90;;;;;;5073866;28;20472;-44
2021/12/19 09:28:42;;;;;;;4.70;1.45;;;8.20;99.90;;;;;;5089816;28;20066;-44
2021/12/19 09:31:07;;;;;;;1.92;1.20;;;8.10;99.90;;;;;;5078799;28;20036;-44
2021/12/19 09:33:33;;;;;;;2.00;1.13;;;8.20;99.90;;;;;;5083705;28;20498;-45
2021/12/19 09:35:59;;;;;;;8.75;1.58;;;8.20;99.90;;;;;;5089755;28;20673;-43
2021/12/19 09:38:25;;;;;;;6.32;1.40;;;8.30;99.90;;;;;;5090200;28;20086;-43
2021/12/19 09:41:01;;;;;;;7.68;2.05;;;8.30;99.90;;;;;;5073918;28;20020;-43
2021/12/19 09:43:42;;;;;;;3.28;1.73;;;8.30;99.90;;;;;;5074161;28;20475;-44
2021/12/19 09:46:16;;;;;;;8.02;1.80;;;8.30;99.90;;;;;;5074095;28;20031;-44
2021/12/19 09:48:44;;;;;;;8.77;1.63;;;8.40;99.90;;;;;;5073352;28;20416;-43
2021/12/19 09:51:11;;;;;;;5.18;1.27;;;8.40;99.90;;;;;;5082308;28;20024;-44
2021/12/19 09:53:38;;;;;;;5.20;1.95;;;8.40;99.90;;;;;;5094096;28;20024;-43
2021/12/19 09:56:05;;;;;;;8.20;2.13;;;8.40;99.90;;;;;;5093559;28;20036;-44
2021/12/19 09:58:35;;;;;;;8.82;1.92;;;8.40;99.90;;;;;;5093996;28;20040;-44
2021/12/19 10:01:04;;;;;;;4.22;1.40;;;8.40;99.90;;;;;;5093704;28;20441;-43
2021/12/19 10:03:30;;;;;;;3.42;1.55;;;8.40;99.90;;;;;;5093816;28;20051;-44
2021/12/19 10:06:16;;;;;;;9.07;4.15;;;8.40;99.90;;;;;;5092798;28;20490;-44
2021/12/19 10:08:43;;;;;;;6.22;1.45;;;8.40;99.90;;;;;;5088408;28;20047;-43
2021/12/19 10:11:46;;;;;;;4.35;1.13;;;8.40;99.90;;;;;;5093348;28;20028;-44
2021/12/19 10:14:30;;;;;;;6.18;1.10;;;8.40;99.90;;;;;;5093561;28;20032;-45
2021/12/19 10:16:58;;;;;;;8.18;1.65;;;8.50;99.90;;;;;;5092808;28;20031;-43
2021/12/19 10:19:47;;;;;;;2.83;1.00;;;8.40;99.90;;;;;;5093815;28;20020;-43
2021/12/19 10:22:33;;;;;;;2.25;1.15;;;8.40;99.90;;;;;;5093779;28;20500;-43
2021/12/19 10:25:07;;;;;;;7.28;2.08;;;8.50;99.90;;;;;;5092781;28;20062;-43
2021/12/19 10:27:42;;;;;;;6.15;1.33;;;8.50;99.90;;;;;;5093413;28;20082;-44
2021/12/19 10:30:20;;;;;;;10.23;1.65;;;8.50;99.90;;;;;;5091095;28;20046;-43
2021/12/19 10:32:58;;;;;;;4.90;1.10;;;8.50;99.90;;;;;;5089325;28;20376;-43
2021/12/19 10:35:39;;;;;;;3.17;1.50;;;8.50;99.90;;;;;;5090996;28;20028;-44
2021/12/19 10:38:12;;;;;;;5.60;1.17;;;8.50;99.90;;;;;;5093509;28;20036;-44
2021/12/19 10:40:37;;;;;;;6.25;1.30;;;8.50;99.90;;;;;;5093732;28;20020;-43
2021/12/19 10:43:05;;;;;;;4.13;1.13;;;8.50;99.90;;;;;;5093970;28;20020;-44
2021/12/19 10:45:44;;;;;;;7.45;1.63;;;8.50;99.90;;;;;;5075083;28;20351;-43
2021/12/19 10:48:24;;;;;;;9.07;1.70;;;8.50;99.90;;;;;;5093508;28;20031;-43
2021/12/19 10:51:01;;;;;;;5.35;1.40;;;8.50;99.90;;;;;;5093467;28;20016;-44
2021/12/19 10:53:55;;;;;;;5.20;1.80;;;8.60;99.90;;;;;;5093293;28;20430;-43
2021/12/19 10:56:29;;;;;;;5.15;1.50;;;8.70;99.90;;;;;;5093726;28;20623;-43
2021/12/19 10:58:58;;;;;;;4.97;1.08;;;8.70;99.90;;;;;;5093063;28;20024;-44
2021/12/19 11:01:26;;;;;;;;;;;8.70;99.90;;;;;;5093089;28;20093;-42
2021/12/19 11:03:54;;;;;;;5.03;1.30;;;8.60;99.90;;;;;;5092249;28;19904;-43
2021/12/19 11:06:22;;;;;;;;;;;8.70;99.90;;;;;;5092428;28;20020;-43
2021/12/19 11:08:48;;;;;;;2.83;1.00;;;8.70;99.90;;;;;;5092417;28;19915;-44
2021/12/19 11:11:30;;;;;;;11.00;1.73;;;8.70;99.90;;;;;;5093758;28;20442;-42
2021/12/19 11:13:56;;;;;;;5.82;1.60;;;8.70;99.90;;;;;;5092178;28;20098;-43
2021/12/19 11:16:22;;;;;;;7.07;1.55;;;8.70;99.90;;;;;;5093583;28;20555;-45
2021/12/19 11:18:48;;;;;;;5.38;2.70;;;8.70;99.90;;;;;;5093022;28;20549;-44
2021/12/19 11:21:14;;;;;;;4.68;1.25;;;8.70;99.90;;;;;;5092948;28;20024;-43
2021/12/19 11:23:40;;;;;;;8.10;1.80;;;8.70;99.90;;;;;;5093205;28;20535;-43
2021/12/19 11:26:06;;;;;;;6.78;1.17;;;8.70;99.90;;;;;;5093377;28;20024;-43
2021/12/19 11:28:33;;;;;;;7.97;1.40;;;8.70;99.90;;;;;;5092727;28;20024;-43
2021/12/19 11:30:59;;;;;;;8.57;1.33;;;8.70;99.90;;;;;;5092943;28;20102;-43
2021/12/19 11:34:06;;;;;;;6.05;2.15;;;8.80;99.90;;;;;;5093199;28;20031;-43
2021/12/19 11:36:37;;;;;;;6.60;1.30;;;8.80;99.90;;;;;;5054712;28;20449;-44
2021/12/19 11:39:05;;;;;;;4.35;1.08;;;8.80;99.90;;;;;;5092833;28;20594;-44
2021/12/19 11:41:31;;;;;;;1.08;0.98;;;8.90;99.90;;;;;;5092471;28;20035;-44
2021/12/19 11:44:00;;;;;;;11.10;1.73;;;8.90;99.90;;;;;;5092605;28;20036;-43
2021/12/19 11:46:51;;;;;;;7.30;1.98;;;8.90;99.90;;;;;;5092998;28;20074;-43
2021/12/19 11:49:22;;;;;;;8.68;1.75;;;8.90;99.90;;;;;;5092579;28;20042;-44
2021/12/19 11:51:48;;;;;;;4.60;1.33;;;8.90;99.90;;;;;;5092450;28;20060;-45
2021/12/19 11:54:16;;;;;;;4.75;1.45;;;8.90;99.90;;;;;;5092975;28;20174;-44
2021/12/19 11:57:07;;;;;;;6.85;1.00;;;8.90;99.90;;;;;;5091860;28;20031;-44
2021/12/19 11:59:33;;;;;;;2.53;1.08;;;8.90;99.90;;;;;;5080012;28;20040;-44
2021/12/19 12:02:23;;;;;;;3.65;1.20;;;8.90;99.90;;;;;;5091888;28;20036;-43
2021/12/19 12:05:13;;;;;;;2.95;1.13;;;8.90;99.90;;;;;;5082127;28;20032;-44
2021/12/19 12:08:16;;;;;;;5.10;1.30;;;8.90;99.90;;;;;;5092289;28;20039;-43
2021/12/19 12:10:47;;;;;;;7.88;1.55;;;8.90;99.90;;;;;;5091855;28;20020;-43
2021/12/19 12:13:26;;;;;;;6.88;1.38;;;8.90;99.90;;;;;;5092478;28;20020;-43
2021/12/19 12:16:05;;;;;;;7.88;1.63;;;8.90;99.90;;;;;;5091712;28;20093;-43
2021/12/19 12:18:34;;;;;;;2.17;1.00;;;8.90;99.90;;;;;;5092404;28;20024;-44
2021/12/19 12:21:18;;;;;;;6.20;1.15;;;8.90;99.90;;;;;;5091754;28;20099;-43
2021/12/19 12:23:58;;;;;;;5.68;1.27;;;8.90;99.90;;;;;;5091626;28;20031;-43
2021/12/19 12:26:28;;;;;;;2.78;0.93;;;8.90;99.90;;;;;;5092458;28;20076;-46
2021/12/19 12:28:55;;;;;;;4.80;1.20;;;8.90;99.90;;;;;;5087086;28;20032;-43
2021/12/19 12:31:23;;;;;;;5.30;1.88;;;9.00;99.90;;;;;;5090621;28;20471;-44
2021/12/19 12:33:50;;;;;;;11.45;1.35;;;8.90;99.90;;;;;;5090516;28;20412;-44
2021/12/19 12:36:16;;;;;;;6.93;1.25;;;8.90;99.90;;;;;;5089992;28;20035;-44
2021/12/19 12:38:46;;;;;;;3.67;1.40;;;9.00;99.90;;;;;;5089645;28;20054;-43
2021/12/19 12:41:26;;;;;;;11.23;1.33;;;8.90;99.90;;;;;;5090986;28;20032;-44
2021/12/19 12:43:53;;;;;;;4.82;1.23;;;8.90;99.90;;;;;;5091367;28;20034;-43
2021/12/19 12:46:20;;;;;;;6.45;1.88;;;9.00;99.90;;;;;;5092303;28;20348;-44
2021/12/19 12:49:00;;;;;;;7.80;1.50;;;8.90;99.90;;;;;;5091710;28;20021;-44
2021/12/19 12:51:32;;;;;;;11.57;1.88;;;9.00;99.90;;;;;;5078586;28;20021;-44
2021/12/19 12:54:25;;;;;;;6.20;1.90;;;9.00;99.90;;;;;;5071611;28;20097;-43
2021/12/19 12:56:54;;;;;;;6.95;1.58;;;9.00;99.90;;;;;;5075268;28;20032;-45
2021/12/19 12:59:25;;;;;;;8.77;1.92;;;9.00;99.90;;;;;;5083140;28;20490;-44
2021/12/19 13:04:34;;;;;;;8.00;1.45;;;8.90;99.90;;;;;;5076851;28;20465;-45
2021/12/19 13:07:15;;;;;;;5.93;1.10;;;9.00;99.90;;;;;;5090503;28;20106;-43
2021/12/19 13:09:46;;;;;;;8.00;1.23;;;9.00;99.90;;;;;;5090022;28;20032;-42
2021/12/19 13:12:24;;;;;;;7.50;1.83;;;9.00;99.90;;;;;;5090343;28;20487;-45
2021/12/19 13:14:55;;;;;;;10.27;1.63;;;9.00;99.90;;;;;;5093322;28;20036;-44
2021/12/19 13:17:30;;;;;;;13.82;2.00;;;9.00;99.90;;;;;;5093548;28;20298;-44
2021/12/19 13:20:16;;;;;;;9.40;1.50;;;9.00;99.90;;;;;;5082908;28;20115;-45
2021/12/19 13:22:49;;;;;;;12.45;1.63;;;9.00;99.90;;;;;;5092557;28;20028;-43
2021/12/19 13:25:18;;;;;;;4.47;2.60;;;9.00;99.90;;;;;;5081410;28;20037;-44
2021/12/19 13:27:46;;;;;;;10.10;1.45;;;9.00;99.90;;;;;;5076756;28;20040;-44
2021/12/19 13:30:14;;;;;;;6.20;1.95;;;8.90;99.90;;;;;;5085570;28;20032;-44
2021/12/19 13:32:52;;;;;;;18.10;1.65;;;9.00;99.90;;;;;;5075239;28;20074;-44
2021/12/19 13:35:29;;;;;;;5.50;1.75;;;8.90;99.90;;;;;;5088043;28;20020;-43
2021/12/19 13:38:06;;;;;;;12.98;1.63;;;8.90;99.90;;;;;;5081194;28;20438;-43
2021/12/19 13:40:33;;;;;;;7.63;1.20;;;8.90;99.90;;;;;;5080315;28;20047;-44
2021/12/19 13:43:14;;;;;;;8.35;1.55;;;8.90;99.90;;;;;;5074886;28;20024;-44
2021/12/19 13:45:48;;;;;;;7.60;1.60;;;8.90;99.90;;;;;;5095212;28;20077;-44
2021/12/19 13:48:25;;;;;;;9.45;2.40;;;8.90;99.90;;;;;;5094740;28;20040;-43
2021/12/19 13:50:58;;;;;;;9.68;2.00;;;8.80;99.90;;;;;;5094714;28;20047;-43
2021/12/19 13:53:26;;;;;;;12.52;2.25;;;8.90;99.90;;;;;;5095062;28;20486;-43
2021/12/19 13:55:57;;;;;;;12.77;2.43;;;8.90;99.90;;;;;;5087655;28;20029;-45
2021/12/19 13:58:28;;;;;;;10.80;1.75;;;8.90;99.90;;;;;;5074907;28;20021;-44
2021/12/19 14:00:56;;;;;;;3.35;1.20;;;8.90;99.90;;;;;;5074074;28;20040;-43
2021/12/19 14:03:40;;;;;;;10.70;2.10;;;8.90;99.90;;;;;;5074125;28;20456;-44
2021/12/19 14:06:06;;;;;;;16.25;1.45;;;8.90;99.90;;;;;;5074393;28;20120;-44
2021/12/19 14:08:34;;;;;;;12.10;2.35;;;9.00;99.90;;;;;;5074115;28;20028;-44
2021/12/19 14:11:14;;;;;;;8.07;1.02;;;9.00;99.90;;;;;;5074290;28;20021;-45
2021/12/19 14:13:43;;;;;;;5.47;1.52;;;9.00;99.90;;;;;;5074311;28;20108;-45